Time;durP1;ratioP1;P1;durP2;ratioP2;P2;SDS_P1;SDS_P2;PMS_P1;PMS_P2;Temp;Humidity;BMP_temperature;BMP_pressure;BME280_temperature;BME280_humidity;BME280_pressure;Samples;Min_cycle;Max_cycle;Signal;HPM_P1;HPM_P2
2021/10/20 00:00:46;;;;;;;26.27;20.10;;;16.70;98.30;;;;;;4139386;28;21134;-82
2021/10/20 00:02:50;;;;;;;23.23;19.43;;;16.70;98.30;;;;;;4132247;28;20550;-82
2021/10/20 00:04:54;;;;;;;28.00;21.27;;;16.70;98.30;;;;;;4135186;28;20465;-82
2021/10/20 00:06:59;;;;;;;25.93;21.30;;;16.80;98.30;;;;;;4140682;28;20524;-82
2021/10/20 00:09:04;;;;;;;23.43;19.63;;;16.80;98.30;;;;;;4144372;28;20585;-82
2021/10/20 00:11:07;;;;;;;25.63;19.10;;;16.70;98.30;;;;;;4134754;28;20477;-82
2021/10/20 00:13:10;;;;;;;26.97;20.43;;;16.70;98.30;;;;;;4134758;28;21054;-82
2021/10/20 00:15:15;;;;;;;27.83;20.30;;;16.70;98.30;;;;;;4142888;28;20482;-81
2021/10/20 00:17:19;;;;;;;28.10;21.00;;;16.70;98.30;;;;;;4136815;28;20492;-81
2021/10/20 00:19:24;;;;;;;23.53;19.90;;;16.60;98.30;;;;;;4143230;28;20502;-81
2021/10/20 00:21:28;;;;;;;28.10;20.70;;;16.60;98.30;;;;;;4143216;28;20488;-81
2021/10/20 00:23:31;;;;;;;26.73;21.60;;;16.60;98.30;;;;;;4143495;28;20516;-81
2021/10/20 00:25:35;;;;;;;28.80;22.47;;;16.60;98.30;;;;;;4143092;28;20524;-81
2021/10/20 00:27:39;;;;;;;27.90;21.80;;;16.50;98.30;;;;;;4142574;28;20842;-81
2021/10/20 00:29:41;;;;;;;27.10;21.03;;;16.50;98.30;;;;;;4143414;28;20516;-81
2021/10/20 00:31:44;;;;;;;30.17;21.77;;;16.50;98.30;;;;;;4143027;28;20470;-81
2021/10/20 00:33:47;;;;;;;25.30;19.57;;;16.50;98.30;;;;;;4144948;28;20989;-82
2021/10/20 00:35:50;;;;;;;27.70;22.20;;;16.40;98.30;;;;;;4142900;28;20475;-81
2021/10/20 00:37:54;;;;;;;24.90;21.10;;;16.40;98.30;;;;;;4143306;28;20491;-82
2021/10/20 00:39:57;;;;;;;27.47;21.80;;;16.40;98.30;;;;;;4140392;28;20940;-81
2021/10/20 00:42:01;;;;;;;24.80;20.10;;;16.40;98.30;;;;;;4141962;28;20474;-81
2021/10/20 00:44:05;;;;;;;28.80;20.27;;;16.40;98.30;;;;;;4142770;28;20466;-81
2021/10/20 00:46:08;;;;;;;28.57;21.10;;;16.40;98.30;;;;;;4135332;28;20476;-81
2021/10/20 00:48:11;;;;;;;26.60;21.03;;;16.40;98.30;;;;;;4142915;28;21072;-81
2021/10/20 00:50:15;;;;;;;28.10;22.13;;;16.30;98.30;;;;;;4142430;28;20480;-82
2021/10/20 00:52:20;;;;;;;25.97;20.70;;;16.30;98.30;;;;;;4141998;28;20945;-82
2021/10/20 00:54:23;;;;;;;24.60;19.73;;;16.30;98.30;;;;;;4144928;28;20470;-82
2021/10/20 00:56:28;;;;;;;25.37;20.17;;;16.30;98.30;;;;;;4136895;28;20537;-82
2021/10/20 00:58:32;;;;;;;24.00;20.00;;;16.30;98.30;;;;;;4133276;28;20474;-81
2021/10/20 01:00:35;;;;;;;25.10;18.87;;;16.30;98.30;;;;;;4146358;28;20467;-82
2021/10/20 01:02:40;;;;;;;25.67;20.23;;;16.30;98.30;;;;;;4139952;28;20842;-82
2021/10/20 01:04:44;;;;;;;26.93;19.57;;;16.30;98.30;;;;;;4138488;28;20495;-82
2021/10/20 01:06:47;;;;;;;25.63;19.60;;;16.30;98.30;;;;;;4140223;28;20584;-82
2021/10/20 01:08:50;;;;;;;30.73;18.23;;;16.20;98.30;;;;;;4141290;28;20460;-81
2021/10/20 03:07:59;;;;;;;16.33;11.20;;;15.80;98.30;;;;;;4115152;28;20491;-83
2021/10/20 03:10:02;;;;;;;13.87;12.33;;;15.90;98.30;;;;;;4123215;28;20543;-84
2021/10/20 03:12:15;;;;;;;16.27;12.63;;;15.90;98.30;;;;;;4130870;28;20475;-86
2021/10/20 03:14:32;;;;;;;15.60;10.87;;;15.90;98.30;;;;;;4122568;28;20503;-85
2021/10/20 03:16:35;;;;;;;17.77;12.57;;;15.90;98.30;;;;;;4123079;28;20467;-84
2021/10/20 03:18:38;;;;;;;14.83;11.10;;;15.90;98.30;;;;;;4123193;28;20468;-84
2021/10/20 03:20:41;;;;;;;12.70;10.70;;;15.90;98.30;;;;;;4123072;28;20488;-85
2021/10/20 03:22:45;;;;;;;12.77;11.27;;;15.90;98.30;;;;;;4123093;28;20615;-85
2021/10/20 03:24:49;;;;;;;12.30;11.00;;;15.90;98.30;;;;;;4122872;28;20457;-84
2021/10/20 03:26:52;;;;;;;14.43;11.33;;;15.90;98.30;;;;;;4127441;28;20474;-84
2021/10/20 03:28:55;;;;;;;12.80;9.63;;;15.90;98.30;;;;;;4131153;28;20984;-85
2021/10/20 03:30:58;;;;;;;12.70;10.60;;;15.90;98.30;;;;;;4130839;28;20845;-84
2021/10/20 03:33:01;;;;;;;16.20;11.57;;;15.90;98.30;;;;;;4131002;28;20479;-85
2021/10/20 03:35:06;;;;;;;13.17;10.77;;;15.80;98.30;;;;;;4130822;28;20485;-84
2021/10/20 03:37:09;;;;;;;12.80;10.70;;;15.90;98.30;;;;;;4131470;28;20506;-84
2021/10/20 03:39:12;;;;;;;11.97;10.30;;;15.80;98.30;;;;;;4131501;28;20551;-84
2021/10/20 03:41:17;;;;;;;13.40;11.17;;;15.80;98.30;;;;;;4130470;28;20521;-84
2021/10/20 03:43:19;;;;;;;11.90;10.00;;;15.80;98.30;;;;;;4130683;28;20467;-84
2021/10/20 03:45:23;;;;;;;11.70;10.50;;;15.80;98.30;;;;;;4130631;28;20471;-85
2021/10/20 03:47:26;;;;;;;12.00;9.33;;;15.80;98.30;;;;;;4130783;28;20834;-84
2021/10/20 03:49:29;;;;;;;12.43;10.00;;;15.80;98.30;;;;;;4130860;28;20477;-85
2021/10/20 03:51:34;;;;;;;10.53;9.20;;;15.80;98.30;;;;;;4130815;28;20491;-84
2021/10/20 03:53:37;;;;;;;11.10;9.70;;;15.70;98.30;;;;;;4130780;28;20485;-83
2021/10/20 03:55:40;;;;;;;12.87;10.00;;;15.70;98.30;;;;;;4130888;28;20826;-85
2021/10/20 03:57:45;;;;;;;12.57;10.30;;;15.70;98.30;;;;;;4131533;28;20463;-83
2021/10/20 03:59:47;;;;;;;13.20;10.23;;;15.70;98.30;;;;;;4131362;28;20465;-84
2021/10/20 04:01:50;;;;;;;11.13;10.03;;;15.70;98.30;;;;;;4131296;28;20493;-85
2021/10/20 04:03:53;;;;;;;12.30;9.20;;;15.60;98.30;;;;;;4131393;28;20463;-84
2021/10/20 04:06:00;;;;;;;10.93;8.90;;;15.60;98.30;;;;;;4131050;28;21345;-84
2021/10/20 04:08:05;;;;;;;12.90;9.90;;;15.60;98.30;;;;;;4131541;28;20467;-84
2021/10/20 04:10:11;;;;;;;11.33;9.73;;;15.60;98.30;;;;;;4135352;28;20542;-85
2021/10/20 04:12:14;;;;;;;10.20;9.20;;;15.60;98.30;;;;;;4135710;28;20467;-85
2021/10/20 04:14:19;;;;;;;11.37;9.60;;;15.60;98.30;;;;;;4131653;28;20478;-84
2021/10/20 04:16:22;;;;;;;10.70;8.57;;;15.50;98.30;;;;;;4133478;28;20463;-85
2021/10/20 04:18:25;;;;;;;8.67;7.70;;;15.50;98.30;;;;;;4132934;28;20834;-84
2021/10/20 04:20:28;;;;;;;12.60;9.73;;;15.50;98.30;;;;;;4132023;28;20569;-84
2021/10/20 04:22:31;;;;;;;10.23;9.10;;;15.50;98.30;;;;;;4134309;28;20478;-85
2021/10/20 04:24:34;;;;;;;9.67;8.67;;;15.40;98.30;;;;;;4131773;28;20542;-83
2021/10/20 04:26:37;;;;;;;9.60;8.60;;;15.50;98.30;;;;;;4134211;28;20825;-84
2021/10/20 04:28:40;;;;;;;11.10;8.90;;;15.50;98.30;;;;;;4131917;28;20481;-84
2021/10/20 04:30:44;;;;;;;10.07;8.70;;;15.40;98.30;;;;;;4131111;28;20494;-84
2021/10/20 04:32:47;;;;;;;9.43;8.33;;;15.40;98.30;;;;;;4130870;28;20467;-84
2021/10/20 04:34:50;;;;;;;16.13;9.17;;;15.40;98.30;;;;;;4130950;28;20486;-84
2021/10/20 04:36:53;;;;;;;9.50;8.40;;;15.40;98.30;;;;;;4130564;28;20831;-84
2021/10/20 04:38:56;;;;;;;11.47;8.87;;;15.40;98.30;;;;;;4130344;28;20474;-84
2021/10/20 04:40:59;;;;;;;12.00;9.40;;;15.40;98.30;;;;;;4130811;28;20491;-84
2021/10/20 04:43:03;;;;;;;12.47;10.13;;;15.40;98.30;;;;;;4130601;28;20517;-84
2021/10/20 04:45:07;;;;;;;10.53;9.43;;;15.40;98.30;;;;;;4131880;28;20518;-85
2021/10/20 04:47:11;;;;;;;15.97;9.50;;;15.30;98.30;;;;;;4133142;28;20473;-83
2021/10/20 04:49:14;;;;;;;14.80;11.30;;;15.30;98.30;;;;;;4149844;28;20822;-84
2021/10/20 04:51:17;;;;;;;14.60;11.37;;;15.30;98.30;;;;;;4147556;28;20500;-85
2021/10/20 04:53:20;;;;;;;12.33;10.83;;;15.40;98.30;;;;;;4147646;28;20473;-84
2021/10/20 04:55:23;;;;;;;16.90;11.73;;;15.40;98.30;;;;;;4150429;28;20573;-84
2021/10/20 04:57:26;;;;;;;19.90;14.07;;;15.40;98.30;;;;;;4148583;28;20501;-83
2021/10/20 04:59:31;;;;;;;14.33;12.57;;;15.40;98.30;;;;;;4134263;28;20478;-83
2021/10/20 05:01:34;;;;;;;16.90;12.80;;;15.40;98.30;;;;;;4133509;28;20501;-84
2021/10/20 05:03:39;;;;;;;15.83;13.40;;;15.40;98.30;;;;;;4133278;28;20474;-84
2021/10/20 05:05:42;;;;;;;15.40;13.40;;;15.40;98.30;;;;;;4132891;28;20643;-84
2021/10/20 05:07:49;;;;;;;13.90;12.43;;;15.40;98.30;;;;;;4133615;28;20473;-85
2021/10/20 05:09:52;;;;;;;15.83;11.10;;;15.40;98.30;;;;;;4140158;28;20464;-84
2021/10/20 05:11:55;;;;;;;15.67;10.70;;;15.40;98.30;;;;;;4150106;28;20501;-84
2021/10/20 05:13:58;;;;;;;11.53;10.13;;;15.40;98.30;;;;;;4148866;28;20989;-85
2021/10/20 05:16:01;;;;;;;9.60;8.30;;;15.40;98.30;;;;;;4148795;28;20474;-85
2021/10/20 05:18:08;;;;;;;9.70;8.03;;;15.40;98.30;;;;;;4141397;28;20458;-84
2021/10/20 05:20:17;;;;;;;11.83;8.60;;;15.40;98.30;;;;;;4126309;28;20460;-83
2021/10/20 05:22:20;;;;;;;10.30;8.77;;;15.40;98.30;;;;;;4117140;28;20498;-85
2021/10/20 05:24:24;;;;;;;10.60;8.10;;;15.30;98.30;;;;;;4117258;28;20464;-85
2021/10/20 05:26:30;;;;;;;10.30;8.50;;;15.30;98.30;;;;;;4116967;28;20476;-85
2021/10/20 05:28:33;;;;;;;10.57;8.87;;;15.30;98.30;;;;;;4117284;28;20475;-84
2021/10/20 05:30:39;;;;;;;8.83;7.47;;;15.30;98.30;;;;;;4116959;28;20492;-84
2021/10/20 05:32:42;;;;;;;9.03;8.10;;;15.40;98.30;;;;;;4117313;28;20614;-85
2021/10/20 05:34:46;;;;;;;11.03;8.33;;;15.30;98.30;;;;;;4116802;28;20571;-85
2021/10/20 05:36:50;;;;;;;14.93;8.57;;;15.30;98.30;;;;;;4116930;28;20972;-85
2021/10/20 05:38:55;;;;;;;16.93;8.80;;;15.30;98.30;;;;;;4117411;28;20868;-84
2021/10/20 05:40:58;;;;;;;11.20;8.00;;;15.30;98.30;;;;;;4116822;28;20488;-84
2021/10/20 05:43:01;;;;;;;12.33;7.90;;;15.30;98.30;;;;;;4117076;28;20563;-84
2021/10/20 05:45:05;;;;;;;10.33;8.43;;;15.30;98.30;;;;;;4124713;28;20498;-84
2021/10/20 05:47:08;;;;;;;10.17;9.10;;;15.30;98.30;;;;;;4125281;28;20471;-85
2021/10/20 05:49:11;;;;;;;8.80;7.90;;;15.30;98.30;;;;;;4126177;28;20562;-84
2021/10/20 05:51:15;;;;;;;8.90;7.97;;;15.30;98.30;;;;;;4131306;28;20578;-85
2021/10/20 05:53:19;;;;;;;9.20;8.13;;;15.30;98.30;;;;;;4128049;28;20505;-85
2021/10/20 05:55:22;;;;;;;9.47;8.47;;;15.30;98.30;;;;;;4131071;28;20497;-84
2021/10/20 05:57:26;;;;;;;12.73;8.83;;;15.40;98.30;;;;;;4132073;28;20768;-84
2021/10/20 05:59:29;;;;;;;9.10;7.60;;;15.40;98.30;;;;;;4131633;28;20561;-84
2021/10/20 06:01:32;;;;;;;8.97;7.93;;;15.40;98.30;;;;;;4128153;28;21003;-84
2021/10/20 06:03:37;;;;;;;11.80;8.70;;;15.40;98.30;;;;;;4123700;28;20467;-83
2021/10/20 06:05:40;;;;;;;14.23;8.60;;;15.40;98.30;;;;;;4124156;28;20486;-83
2021/10/20 06:07:44;;;;;;;9.40;7.83;;;15.40;98.30;;;;;;4129144;28;20490;-84
2021/10/20 06:09:49;;;;;;;13.07;8.00;;;15.40;98.30;;;;;;4131757;28;20493;-83
2021/10/20 06:11:52;;;;;;;9.60;8.10;;;15.40;98.30;;;;;;4129841;28;20517;-84
2021/10/20 06:13:54;;;;;;;10.30;7.93;;;15.40;98.30;;;;;;4131823;28;20530;-83
2021/10/20 06:15:57;;;;;;;9.97;8.20;;;15.40;98.30;;;;;;4124627;28;20492;-83
2021/10/20 06:18:04;;;;;;;9.53;7.67;;;15.40;98.30;;;;;;4130689;28;20529;-84
2021/10/20 06:20:09;;;;;;;11.00;8.40;;;15.40;98.30;;;;;;4123189;28;20517;-85
2021/10/20 06:22:12;;;;;;;9.73;8.10;;;15.40;98.30;;;;;;4124681;28;21035;-85
2021/10/20 06:24:19;;;;;;;9.80;8.30;;;15.40;98.30;;;;;;4124992;28;20515;-86
2021/10/20 06:26:26;;;;;;;13.93;9.43;;;15.40;98.30;;;;;;4123999;28;20538;-85
2021/10/20 06:28:29;;;;;;;11.60;8.50;;;15.40;98.30;;;;;;4129787;28;20513;-85
2021/10/20 06:30:32;;;;;;;9.50;7.60;;;15.40;98.30;;;;;;4130370;28;20496;-84
2021/10/20 06:32:42;;;;;;;9.07;8.00;;;15.40;98.30;;;;;;4136580;28;20827;-85
2021/10/20 06:34:45;;;;;;;10.20;8.60;;;15.40;98.30;;;;;;4135660;28;20486;-85
2021/10/20 06:36:51;;;;;;;8.77;7.87;;;15.40;98.30;;;;;;4137895;28;20463;-85
2021/10/20 06:38:55;;;;;;;9.60;7.80;;;15.40;98.30;;;;;;4137600;28;20474;-84
2021/10/20 06:40:58;;;;;;;13.03;8.83;;;15.40;98.30;;;;;;4140559;28;20491;-85
2021/10/20 06:43:03;;;;;;;13.37;8.93;;;15.50;98.30;;;;;;4143474;28;20486;-85
2021/10/20 06:45:08;;;;;;;9.00;7.53;;;15.50;98.30;;;;;;4130676;28;20456;-85
2021/10/20 06:47:11;;;;;;;9.60;7.93;;;15.50;98.30;;;;;;4131817;28;20478;-85
2021/10/20 06:49:14;;;;;;;10.73;8.03;;;15.50;98.30;;;;;;4130911;28;20469;-85
2021/10/20 06:51:17;;;;;;;10.67;7.73;;;15.50;98.30;;;;;;4126354;28;20479;-85
2021/10/20 06:53:20;;;;;;;9.00;7.63;;;15.50;98.30;;;;;;4138032;28;20482;-84
2021/10/20 06:55:24;;;;;;;13.83;7.53;;;15.60;98.30;;;;;;4131540;28;20517;-85
2021/10/20 06:57:27;;;;;;;7.57;6.87;;;15.60;98.30;;;;;;4131849;28;20463;-84
2021/10/20 06:59:31;;;;;;;15.63;8.10;;;15.50;98.30;;;;;;4143164;28;20466;-85
2021/10/20 07:01:34;;;;;;;9.93;7.90;;;15.60;98.30;;;;;;4143433;28;20487;-86
2021/10/20 07:03:37;;;;;;;11.83;7.27;;;15.60;98.30;;;;;;4148199;28;20477;-85
2021/10/20 07:05:42;;;;;;;11.50;7.87;;;15.60;98.30;;;;;;4145437;28;20486;-86
2021/10/20 07:07:45;;;;;;;12.43;8.90;;;15.60;98.30;;;;;;4139326;28;20516;-85
2021/10/20 07:09:49;;;;;;;12.70;8.47;;;15.60;98.30;;;;;;4130883;28;20463;-86
2021/10/20 07:11:52;;;;;;;9.60;7.77;;;15.60;98.30;;;;;;4124837;28;20504;-86
2021/10/20 07:13:55;;;;;;;10.70;7.77;;;15.60;98.30;;;;;;4131765;28;20478;-86
2021/10/20 07:16:00;;;;;;;9.00;7.70;;;15.60;98.30;;;;;;4129603;28;20475;-86
2021/10/20 07:18:03;;;;;;;10.23;8.40;;;15.60;98.30;;;;;;4130965;28;20474;-84
2021/10/20 07:20:07;;;;;;;11.83;7.93;;;15.60;98.30;;;;;;4128536;28;20554;-83
2021/10/20 07:22:10;;;;;;;13.60;8.53;;;15.60;98.30;;;;;;4129618;28;20462;-83
2021/10/20 07:24:13;;;;;;;12.47;7.60;;;15.70;98.30;;;;;;4128316;28;20494;-83
2021/10/20 07:26:21;;;;;;;12.47;8.90;;;15.60;98.30;;;;;;4128915;28;20970;-84
2021/10/20 07:28:24;;;;;;;11.13;7.73;;;15.70;98.30;;;;;;4131973;28;20569;-84
2021/10/20 07:30:27;;;;;;;9.00;8.10;;;15.70;98.30;;;;;;4132482;28;20499;-82
2021/10/20 07:32:32;;;;;;;12.90;7.70;;;15.70;98.30;;;;;;4125352;28;20838;-84
2021/10/20 07:34:35;;;;;;;10.97;8.27;;;15.70;98.30;;;;;;4129402;28;20507;-83
2021/10/20 07:36:38;;;;;;;8.93;7.47;;;15.70;98.30;;;;;;4129042;28;20952;-84
2021/10/20 07:38:41;;;;;;;8.60;7.50;;;15.70;98.30;;;;;;4126173;28;20514;-84
2021/10/20 07:40:44;;;;;;;10.07;7.67;;;15.70;98.30;;;;;;4123256;28;20501;-83
2021/10/20 07:42:47;;;;;;;13.43;8.60;;;15.80;98.30;;;;;;4129878;28;20534;-83
2021/10/20 07:44:50;;;;;;;9.30;8.40;;;15.70;98.30;;;;;;4130244;28;21042;-84
2021/10/20 07:46:53;;;;;;;10.13;8.13;;;15.80;98.30;;;;;;4130972;28;20473;-84
2021/10/20 07:48:57;;;;;;;14.33;9.40;;;15.80;98.30;;;;;;4130225;28;20463;-84
2021/10/20 07:51:00;;;;;;;15.17;8.87;;;15.80;98.30;;;;;;4126828;28;20494;-84
2021/10/20 07:53:04;;;;;;;11.53;8.20;;;15.90;98.30;;;;;;4128814;28;20473;-83
2021/10/20 07:55:08;;;;;;;10.23;8.40;;;15.90;98.30;;;;;;4122717;28;20537;-84
2021/10/20 07:57:11;;;;;;;9.63;8.30;;;15.90;98.30;;;;;;4130519;28;20474;-85
2021/10/20 07:59:14;;;;;;;13.17;8.80;;;15.90;98.30;;;;;;4124221;28;20474;-84
2021/10/20 08:01:17;;;;;;;11.67;8.93;;;15.90;98.30;;;;;;4126785;28;20501;-84
2021/10/20 08:03:20;;;;;;;11.20;9.53;;;15.90;98.30;;;;;;4130233;28;20871;-83
2021/10/20 08:05:25;;;;;;;14.00;9.27;;;15.90;98.30;;;;;;4124162;28;20472;-85
2021/10/20 08:07:28;;;;;;;13.03;9.53;;;16.00;98.30;;;;;;4118585;28;20498;-82
2021/10/20 08:09:31;;;;;;;11.53;8.53;;;16.00;98.30;;;;;;4132273;28;20476;-83
2021/10/20 08:11:34;;;;;;;10.63;8.60;;;16.00;98.30;;;;;;4130215;28;20499;-84
2021/10/20 08:13:37;;;;;;;12.57;8.80;;;16.00;98.30;;;;;;4128038;28;20471;-84
2021/10/20 08:15:42;;;;;;;15.13;9.87;;;16.00;98.30;;;;;;4126343;28;21030;-85
2021/10/20 08:17:46;;;;;;;12.17;9.63;;;16.00;98.30;;;;;;4130443;28;20477;-84
2021/10/20 08:19:49;;;;;;;13.80;10.03;;;16.00;98.30;;;;;;4122582;28;20477;-84
2021/10/20 08:21:53;;;;;;;11.20;9.30;;;16.00;98.30;;;;;;4125201;28;20490;-84
2021/10/20 08:23:56;;;;;;;12.83;9.70;;;16.10;98.30;;;;;;4127970;28;20478;-84
2021/10/20 08:25:59;;;;;;;15.97;9.70;;;16.10;98.30;;;;;;4122870;28;20525;-84
2021/10/20 08:28:05;;;;;;;11.37;9.90;;;16.10;98.30;;;;;;4120845;28;20562;-84
2021/10/20 08:30:16;;;;;;;13.33;9.47;;;16.10;98.30;;;;;;4124014;28;20467;-84
2021/10/20 08:32:19;;;;;;;13.70;9.73;;;16.20;98.30;;;;;;4119523;28;20510;-84
2021/10/20 08:34:22;;;;;;;11.43;9.90;;;16.20;98.30;;;;;;4133499;28;20851;-87
2021/10/20 08:36:25;;;;;;;12.20;10.40;;;16.30;98.30;;;;;;4130928;28;20478;-84
2021/10/20 08:38:30;;;;;;;20.40;11.37;;;16.30;98.30;;;;;;4128913;28;20466;-84
2021/10/20 08:40:35;;;;;;;13.37;8.50;;;16.40;98.30;;;;;;4137205;28;20495;-84
2021/10/20 08:42:39;;;;;;;11.83;10.30;;;16.40;98.30;;;;;;4133694;28;20470;-85
2021/10/20 08:44:43;;;;;;;12.07;9.63;;;16.50;98.30;;;;;;4134456;28;20475;-85
2021/10/20 08:46:47;;;;;;;12.37;9.77;;;16.50;98.30;;;;;;4139106;28;20833;-84
2021/10/20 08:48:50;;;;;;;11.83;10.10;;;16.60;98.30;;;;;;4141881;28;20465;-84
2021/10/20 08:50:55;;;;;;;10.97;9.80;;;16.70;98.30;;;;;;4146345;28;20494;-85
2021/10/20 08:52:59;;;;;;;14.53;10.03;;;16.70;98.30;;;;;;4135762;28;20469;-84
2021/10/20 08:55:08;;;;;;;11.37;10.10;;;16.70;98.30;;;;;;4133962;28;20865;-85
2021/10/20 08:57:11;;;;;;;16.87;10.10;;;16.80;98.30;;;;;;4126997;28;20515;-85
2021/10/20 08:59:16;;;;;;;12.57;11.27;;;16.80;98.30;;;;;;4125384;28;20463;-84
2021/10/20 09:01:19;;;;;;;11.90;10.03;;;16.80;98.30;;;;;;4135904;28;20517;-85
2021/10/20 09:03:22;;;;;;;16.97;11.03;;;16.80;98.30;;;;;;4130958;28;20590;-85
2021/10/20 09:05:28;;;;;;;10.83;9.27;;;16.90;98.30;;;;;;4131691;28;20459;-85
2021/10/20 09:07:31;;;;;;;14.80;11.20;;;17.00;98.30;;;;;;4122827;28;20463;-84
2021/10/20 09:09:34;;;;;;;12.77;9.87;;;17.00;98.30;;;;;;4129074;28;20471;-84
2021/10/20 09:11:42;;;;;;;12.47;10.67;;;17.00;98.30;;;;;;4121741;28;20502;-84
2021/10/20 09:13:45;;;;;;;12.80;10.27;;;17.00;98.30;;;;;;4125446;28;20458;-85
2021/10/20 09:15:48;;;;;;;11.40;10.10;;;17.00;98.30;;;;;;4127553;28;20468;-85
2021/10/20 09:17:57;;;;;;;12.50;10.77;;;17.00;98.30;;;;;;4125401;28;20859;-85
2021/10/20 09:20:19;;;;;;;14.10;11.50;;;17.00;98.30;;;;;;4132415;28;20575;-85
2021/10/20 09:22:22;;;;;;;9.63;8.10;;;17.00;98.30;;;;;;4131078;28;20978;-85
2021/10/20 09:24:28;;;;;;;11.97;9.80;;;17.10;98.30;;;;;;4131365;28;20493;-85
2021/10/20 09:26:31;;;;;;;14.67;10.40;;;17.10;98.30;;;;;;4123563;28;20467;-84
2021/10/20 09:28:53;;;;;;;12.17;9.83;;;17.20;98.30;;;;;;4117864;28;20522;-85
2021/10/20 09:31:08;;;;;;;12.70;11.10;;;17.30;98.30;;;;;;4125444;28;20521;-85
2021/10/20 09:33:11;;;;;;;12.00;10.17;;;17.40;98.30;;;;;;4128917;28;20479;-84
2021/10/20 09:35:15;;;;;;;14.43;10.90;;;17.30;98.30;;;;;;4127537;28;20805;-85
2021/10/20 09:37:18;;;;;;;15.50;11.57;;;17.40;98.30;;;;;;4128758;28;20934;-85
2021/10/20 09:39:24;;;;;;;14.93;10.43;;;17.30;98.30;;;;;;4127585;28;20499;-85
2021/10/20 09:41:27;;;;;;;12.40;10.53;;;17.30;98.30;;;;;;4126707;28;20499;-85
2021/10/20 09:43:33;;;;;;;18.30;11.63;;;17.20;98.30;;;;;;4127916;28;20829;-85
2021/10/20 09:45:40;;;;;;;11.17;9.97;;;17.20;98.30;;;;;;4125683;28;20467;-85
2021/10/20 09:47:45;;;;;;;12.97;9.87;;;17.10;98.30;;;;;;4129347;28;20473;-85
2021/10/20 09:50:09;;;;;;;14.20;11.70;;;17.10;98.30;;;;;;4127053;28;20890;-84
2021/10/20 09:52:13;;;;;;;17.73;10.50;;;17.00;98.30;;;;;;4126580;28;20467;-85
2021/10/20 09:54:25;;;;;;;14.97;10.33;;;17.00;98.30;;;;;;4130313;28;20465;-85
2021/10/20 09:56:35;;;;;;;18.03;10.53;;;17.00;98.30;;;;;;4131731;28;20496;-85
2021/10/20 09:58:46;;;;;;;15.87;10.77;;;17.00;98.30;;;;;;4130294;28;22027;-85
2021/10/20 10:00:52;;;;;;;11.47;9.90;;;17.10;98.30;;;;;;4131014;28;20525;-85
2021/10/20 10:02:57;;;;;;;11.50;9.63;;;17.10;98.30;;;;;;4129760;28;20459;-85
2021/10/20 10:05:01;;;;;;;12.57;10.60;;;17.10;98.30;;;;;;4126190;28;20514;-85
2021/10/20 10:07:05;;;;;;;11.33;10.13;;;17.20;98.30;;;;;;4129859;28;20970;-86
2021/10/20 10:09:09;;;;;;;11.90;9.93;;;17.30;98.30;;;;;;4137210;28;20465;-85
2021/10/20 10:11:12;;;;;;;11.67;10.47;;;17.40;98.30;;;;;;4132928;28;20573;-85
2021/10/20 10:13:22;;;;;;;14.77;10.73;;;17.40;98.30;;;;;;4132964;28;20823;-85
2021/10/20 10:15:32;;;;;;;12.70;10.23;;;17.40;98.30;;;;;;4131734;28;20474;-85
2021/10/20 10:17:43;;;;;;;12.30;11.00;;;17.40;98.30;;;;;;4126406;28;20491;-86
2021/10/20 10:19:50;;;;;;;11.40;9.70;;;17.50;98.30;;;;;;4131482;28;20499;-85
2021/10/20 10:21:53;;;;;;;11.80;9.70;;;17.50;98.30;;;;;;4132602;28;20502;-85
2021/10/20 10:23:58;;;;;;;11.23;9.93;;;17.50;98.30;;;;;;4128980;28;20550;-85
2021/10/20 10:26:05;;;;;;;13.23;11.07;;;17.40;98.30;;;;;;4130976;28;20494;-85
2021/10/20 10:28:20;;;;;;;14.20;10.07;;;17.40;98.30;;;;;;4132117;28;20467;-85
2021/10/20 10:30:23;;;;;;;15.00;10.23;;;17.20;98.30;;;;;;4127531;28;20467;-85
2021/10/20 10:32:28;;;;;;;12.17;10.37;;;17.20;98.30;;;;;;4132907;28;20554;-85
2021/10/20 10:34:35;;;;;;;13.33;8.87;;;17.20;98.30;;;;;;4131185;28;20562;-83
2021/10/20 10:36:53;;;;;;;11.70;9.20;;;17.20;98.30;;;;;;4133997;28;20465;-85
2021/10/20 10:39:08;;;;;;;14.07;9.90;;;17.10;98.30;;;;;;4130697;28;20501;-84
2021/10/20 10:41:27;;;;;;;14.20;10.00;;;17.10;98.30;;;;;;4127184;28;20483;-84
2021/10/20 10:43:31;;;;;;;13.10;9.93;;;17.10;98.30;;;;;;4134170;28;20485;-85
2021/10/20 10:45:38;;;;;;;14.57;11.00;;;17.00;98.30;;;;;;4134242;28;20837;-84
2021/10/20 10:47:59;;;;;;;13.43;9.03;;;16.90;98.30;;;;;;4137259;28;20465;-84
2021/10/20 10:50:11;;;;;;;10.80;8.93;;;16.80;98.30;;;;;;4132968;28;20473;-85
2021/10/20 10:52:22;;;;;;;9.30;7.90;;;16.80;98.30;;;;;;4131326;28;20534;-84
2021/10/20 10:54:35;;;;;;;11.40;9.00;;;16.80;98.30;;;;;;4130500;28;20467;-84
2021/10/20 10:56:39;;;;;;;10.50;9.40;;;16.70;98.30;;;;;;4131097;28;20467;-84
2021/10/20 10:58:56;;;;;;;11.50;9.00;;;16.70;98.30;;;;;;4132867;28;20482;-84
2021/10/20 11:01:03;;;;;;;15.37;9.60;;;16.60;98.30;;;;;;4132965;28;20498;-86
2021/10/20 11:03:27;;;;;;;14.83;9.93;;;16.60;98.30;;;;;;4126384;28;20509;-85
2021/10/20 11:05:37;;;;;;;11.50;9.07;;;16.60;98.30;;;;;;4130771;28;20974;-84
2021/10/20 11:07:44;;;;;;;9.87;8.10;;;16.70;98.30;;;;;;4131022;28;20520;-84
2021/10/20 11:09:50;;;;;;;11.03;8.50;;;16.70;98.30;;;;;;4132167;28;21835;-85
2021/10/20 11:11:57;;;;;;;10.77;9.27;;;16.70;98.30;;;;;;4130887;28;20499;-85
2021/10/20 11:14:04;;;;;;;11.63;8.67;;;16.70;98.30;;;;;;4138918;28;20486;-85
2021/10/20 11:16:09;;;;;;;10.23;9.07;;;16.70;98.30;;;;;;4127314;28;20473;-84
2021/10/20 11:18:16;;;;;;;10.90;8.47;;;16.70;98.30;;;;;;4123922;28;20510;-84
2021/10/20 11:20:28;;;;;;;10.30;8.60;;;16.70;98.30;;;;;;4114807;28;20464;-85
2021/10/20 11:22:37;;;;;;;10.67;8.57;;;16.70;98.30;;;;;;4131060;28;20489;-84
2021/10/20 11:24:45;;;;;;;9.13;8.13;;;16.80;98.30;;;;;;4131075;28;20529;-85
2021/10/20 11:26:56;;;;;;;12.50;9.50;;;16.80;98.30;;;;;;4137226;28;20466;-84
2021/10/20 11:29:07;;;;;;;9.47;8.50;;;16.90;98.30;;;;;;4131211;28;20865;-86
2021/10/20 11:31:11;;;;;;;10.23;8.83;;;16.90;98.30;;;;;;4127555;28;20842;-85
2021/10/20 11:33:18;;;;;;;9.97;8.00;;;17.00;98.30;;;;;;4130312;28;20478;-85
2021/10/20 11:35:26;;;;;;;8.50;7.63;;;17.10;98.30;;;;;;4131013;28;20477;-84
2021/10/20 11:37:33;;;;;;;12.47;8.20;;;17.10;98.30;;;;;;4131251;28;20459;-84
2021/10/20 11:39:38;;;;;;;12.07;9.00;;;17.10;98.30;;;;;;4129985;28;20482;-85
2021/10/20 11:41:49;;;;;;;12.40;9.13;;;17.10;98.30;;;;;;4127536;28;20919;-86
2021/10/20 11:43:55;;;;;;;10.13;8.97;;;17.10;98.30;;;;;;4127556;28;20545;-85
2021/10/20 11:46:01;;;;;;;10.00;7.80;;;17.10;98.30;;;;;;4132031;28;20506;-84
2021/10/20 11:48:05;;;;;;;8.03;7.23;;;17.10;98.30;;;;;;4131669;28;20562;-85
2021/10/20 11:50:12;;;;;;;9.57;8.57;;;17.10;98.30;;;;;;4140195;28;20469;-86
2021/10/20 11:52:17;;;;;;;10.30;7.87;;;17.10;98.30;;;;;;4126348;28;20464;-84
2021/10/20 11:54:28;;;;;;;10.33;8.80;;;17.10;98.30;;;;;;4130277;28;20525;-86
2021/10/20 11:56:32;;;;;;;11.17;9.03;;;17.10;98.30;;;;;;4134296;28;20459;-85
2021/10/20 11:58:35;;;;;;;9.10;8.00;;;17.10;98.30;;;;;;4130879;28;20575;-84
2021/10/20 12:00:38;;;;;;;10.73;8.73;;;17.10;98.30;;;;;;4129854;28;20487;-84
2021/10/20 12:02:41;;;;;;;11.33;8.10;;;17.20;98.30;;;;;;4129390;28;20566;-85
2021/10/20 12:04:46;;;;;;;13.00;9.10;;;17.20;98.30;;;;;;4131491;28;20546;-84
2021/10/20 12:06:51;;;;;;;10.03;8.47;;;17.20;98.30;;;;;;4132110;28;20834;-85
2021/10/20 12:08:54;;;;;;;11.23;8.27;;;17.30;98.30;;;;;;4132912;28;20566;-85
2021/10/20 12:10:59;;;;;;;11.70;9.33;;;17.30;98.30;;;;;;4140811;28;20491;-85
2021/10/20 12:13:06;;;;;;;10.10;7.70;;;17.30;98.30;;;;;;4141149;28;20471;-85
2021/10/20 12:15:17;;;;;;;12.67;9.20;;;17.40;98.30;;;;;;4131215;28;20534;-85
2021/10/20 12:17:21;;;;;;;12.77;9.37;;;17.30;98.30;;;;;;4136995;28;20477;-85
2021/10/20 12:19:24;;;;;;;9.63;8.63;;;17.30;98.30;;;;;;4136478;28;20582;-84
2021/10/20 12:21:29;;;;;;;13.00;9.50;;;17.30;98.30;;;;;;4135855;28;20517;-85
2021/10/20 12:23:34;;;;;;;10.60;8.17;;;17.20;98.30;;;;;;4139401;28;20462;-84
2021/10/20 12:25:38;;;;;;;12.93;8.53;;;17.20;98.30;;;;;;4134999;28;20467;-84
2021/10/20 12:27:44;;;;;;;9.23;8.23;;;17.10;98.30;;;;;;4138990;28;21069;-85
2021/10/20 12:29:48;;;;;;;11.57;9.30;;;16.90;98.30;;;;;;4140549;28;20459;-85
2021/10/20 12:31:51;;;;;;;10.27;9.20;;;16.80;98.30;;;;;;4138939;28;20521;-85
2021/10/20 12:33:55;;;;;;;12.77;9.90;;;16.60;98.30;;;;;;4139373;28;20473;-85
2021/10/20 12:36:05;;;;;;;11.70;9.90;;;16.50;98.30;;;;;;4138758;28;20467;-84
2021/10/20 12:38:08;;;;;;;13.27;11.20;;;16.40;98.30;;;;;;4134865;28;20553;-84